Washington Township, Michigan
Current Conditions -  °F | °C
As of 5:58 PM on Wednesday 26 Nov 2014 (Local Time) from KMTC Reporting Station
Overcast Overcast  
Wind Chill: 28°   Ceiling: 3000
Heat Index: 34°   Visibility: 12mi
Dew Point: 25°   Wind: 7mph
Humidity: 70%   Direction: 350°N
Pressure: 30.08"   Gusts: NA
Location:  42.7821°N, 83.0432°W
Report Text: KMTC 262258Z 35006KT 12SM OVC030 01/M04 A3008
Loading
Personal Weather Stations






























Interactive Weather Map New forecast layout! Learn more

10-Day Weather Forecast

Advertisements
Track Severe Weather on mobile